Time;durP1;ratioP1;P1;durP2;ratioP2;P2;SDS_P1;SDS_P2;PMS_P1;PMS_P2;Temp;Humidity;BMP_temperature;BMP_pressure;BME280_temperature;BME280_humidity;BME280_pressure;Samples;Min_cycle;Max_cycle;Signal;HPM_P1;HPM_P2
2021/11/10 00:01:21;;;;;;;17.27;3.50;;;;;;;;;;4993527;28;20091;-83
2021/11/10 00:03:50;;;;;;;18.98;4.30;;;;;;;;;;4976745;28;20080;-83
2021/11/10 00:06:17;;;;;;;17.52;3.45;;;;;;;;;;4996116;28;20446;-83
2021/11/10 00:08:44;;;;;;;21.13;3.65;;;;;;;;;;4978924;28;20036;-83
2021/11/10 00:11:12;;;;;;;19.25;3.58;;;;;;;;;;4974581;28;20057;-83
2021/11/10 00:13:40;;;;;;;16.45;3.72;;;;;;;;;;4978197;28;20810;-83
2021/11/10 00:16:10;;;;;;;15.82;3.53;;;;;;;;;;4974718;28;20044;-84
2021/11/10 00:18:38;;;;;;;18.17;3.20;;;;;;;;;;5010691;28;20125;-83
2021/11/10 00:21:12;;;;;;;16.00;3.92;;;;;;;;;;4975576;28;21214;-83
2021/11/10 00:23:39;;;;;;;13.07;2.97;;;;;;;;;;4974188;28;20046;-83
2021/11/10 00:26:08;;;;;;;18.48;4.25;;;;;;;;;;4973710;28;20034;-83
2021/11/10 00:28:45;;;;;;;16.90;3.17;;;;;;;;;;4980787;28;20473;-83
2021/11/10 00:31:13;;;;;;;16.90;3.20;;;;;;;;;;4968947;28;20037;-83
2021/11/10 00:33:41;;;;;;;19.13;3.15;;;;;;;;;;4974755;28;20046;-83
2021/11/10 00:36:09;;;;;;;21.65;3.53;;;;;;;;;;4980575;28;20043;-83
2021/11/10 00:38:37;;;;;;;19.83;3.17;;;;;;;;;;5011844;28;20408;-83
2021/11/10 00:41:04;;;;;;;19.33;3.30;;;;;;;;;;4973667;28;20124;-82
2021/11/10 00:43:34;;;;;;;19.70;3.45;;;;;;;;;;4992642;28;20026;-84
2021/11/10 00:46:04;;;;;;;19.88;3.55;;;;;;;;;;4973826;28;20061;-85
2021/11/10 00:48:32;;;;;;;21.92;3.38;;;;;;;;;;4993549;28;20057;-83
2021/11/10 00:51:02;;;;;;;25.98;3.95;;;;;;;;;;4977846;28;20069;-85
2021/11/10 00:53:29;;;;;;;19.48;3.47;;;;;;;;;;4973982;28;20126;-85
2021/11/10 00:55:59;;;;;;;26.05;4.65;;;;;;;;;;4999367;28;20030;-84
2021/11/10 00:58:26;;;;;;;19.80;3.83;;;;;;;;;;4996026;28;20045;-84
2021/11/10 01:00:54;;;;;;;20.67;3.75;;;;;;;;;;4977530;28;20046;-83
2021/11/10 01:03:27;;;;;;;21.60;3.08;;;;;;;;;;4994334;28;20153;-83
2021/11/10 01:05:55;;;;;;;19.27;3.33;;;;;;;;;;4971550;28;20038;-83
2021/11/10 01:08:23;;;;;;;23.30;3.38;;;;;;;;;;4978386;28;20058;-84
2021/11/10 01:10:52;;;;;;;20.27;3.25;;;;;;;;;;4976344;28;20030;-82
2021/11/10 01:13:22;;;;;;;16.40;2.70;;;;;;;;;;4978523;28;20041;-83
2021/11/10 01:15:51;;;;;;;15.68;2.47;;;;;;;;;;4976175;28;20520;-83
2021/11/10 01:18:17;;;;;;;17.58;3.17;;;;;;;;;;4979864;28;20118;-83
2021/11/10 01:20:43;;;;;;;;;;;;;;;;;;4983260;28;20258;-83
2021/11/10 01:23:12;;;;;;;19.08;3.00;;;;;;;;;;4974560;28;21900;-84
2021/11/10 01:25:41;;;;;;;22.15;3.53;;;;;;;;;;4981586;28;20057;-85
2021/11/10 01:28:08;;;;;;;15.82;2.65;;;;;;;;;;4970670;28;20630;-85
2021/11/10 01:30:37;;;;;;;12.98;2.45;;;;;;;;;;5010851;28;20046;-84
2021/11/10 01:33:06;;;;;;;15.90;2.90;;;;;;;;;;4988186;28;20498;-83
2021/11/10 01:35:33;;;;;;;18.85;2.83;;;;;;;;;;4994462;28;20030;-84
2021/11/10 01:38:02;;;;;;;23.00;3.15;;;;;;;;;;4976784;28;20279;-83
2021/11/10 01:40:31;;;;;;;17.35;3.00;;;;;;;;;;4983250;28;20061;-83
2021/11/10 01:45:45;;;;;;;25.83;3.65;;;;;;;;;;5000433;28;20044;-85
2021/11/10 01:48:14;;;;;;;16.00;3.00;;;;;;;;;;4994607;28;20854;-85
2021/11/10 01:50:43;;;;;;;14.35;2.50;;;;;;;;;;4985999;28;20041;-84
2021/11/10 01:53:14;;;;;;;18.48;3.05;;;;;;;;;;5005784;28;20034;-84
2021/11/10 01:55:43;;;;;;;19.30;2.60;;;;;;;;;;4988040;28;20026;-85
2021/11/10 01:58:09;;;;;;;17.98;2.30;;;;;;;;;;4981601;28;20101;-84
2021/11/10 02:00:40;;;;;;;12.90;2.15;;;;;;;;;;4993449;28;20548;-84
2021/11/10 02:03:09;;;;;;;14.25;1.80;;;;;;;;;;5002461;28;20412;-83
2021/11/10 02:05:38;;;;;;;12.02;1.80;;;;;;;;;;4988492;28;20099;-83
2021/11/10 02:08:05;;;;;;;9.38;1.70;;;;;;;;;;4977358;28;20061;-83
2021/11/10 02:10:32;;;;;;;9.85;1.80;;;;;;;;;;4968864;28;20030;-83
2021/11/10 02:12:59;;;;;;;9.77;1.65;;;;;;;;;;5011571;28;20038;-84
2021/11/10 02:15:26;;;;;;;9.30;1.50;;;;;;;;;;4992264;28;20034;-84
2021/11/10 02:17:59;;;;;;;12.75;1.60;;;;;;;;;;4978278;28;20038;-84
2021/11/10 02:20:32;;;;;;;9.73;2.03;;;;;;;;;;4994335;28;20057;-84
2021/11/10 02:23:02;;;;;;;9.02;1.67;;;;;;;;;;4981617;28;20139;-85
2021/11/10 02:25:32;;;;;;;14.50;1.52;;;;;;;;;;4981759;28;20115;-84
2021/11/10 02:28:00;;;;;;;9.63;1.85;;;;;;;;;;4991444;28;20041;-85
2021/11/10 02:30:29;;;;;;;10.95;1.63;;;;;;;;;;5003018;28;20086;-85
2021/11/10 02:32:58;;;;;;;13.50;1.98;;;;;;;;;;4993058;28;20079;-85
2021/11/10 02:35:27;;;;;;;10.52;1.63;;;;;;;;;;4981586;28;20052;-85
2021/11/10 02:37:56;;;;;;;8.90;1.60;;;;;;;;;;4976646;28;20087;-85
2021/11/10 02:40:25;;;;;;;9.07;1.63;;;;;;;;;;4977848;28;20041;-85
2021/11/10 02:42:54;;;;;;;8.43;1.40;;;;;;;;;;4992799;28;20049;-82
2021/11/10 02:45:23;;;;;;;6.50;1.45;;;;;;;;;;4981248;28;20389;-85
2021/11/10 02:47:51;;;;;;;8.65;1.30;;;;;;;;;;5002587;28;20038;-85
2021/11/10 02:50:18;;;;;;;8.32;1.30;;;;;;;;;;4981037;28;20026;-85
2021/11/10 02:52:46;;;;;;;7.90;1.35;;;;;;;;;;4981104;28;20038;-82
2021/11/10 02:55:14;;;;;;;9.30;1.40;;;;;;;;;;4956957;28;20038;-82
2021/11/10 02:57:43;;;;;;;10.52;1.25;;;;;;;;;;4981575;28;20149;-82
2021/11/10 03:00:15;;;;;;;7.65;1.40;;;;;;;;;;4978372;28;20091;-83
2021/11/10 03:02:43;;;;;;;8.63;1.33;;;;;;;;;;4990340;28;20045;-82
2021/11/10 03:05:10;;;;;;;8.70;1.30;;;;;;;;;;4960934;28;20684;-82
2021/11/10 03:07:37;;;;;;;6.72;1.20;;;;;;;;;;4981008;28;20037;-81
2021/11/10 03:10:05;;;;;;;9.15;1.65;;;;;;;;;;4987014;28;20165;-85
2021/11/10 03:12:32;;;;;;;9.13;1.48;;;;;;;;;;4980749;28;20037;-83
2021/11/10 03:15:01;;;;;;;7.88;1.33;;;;;;;;;;4985093;28;20042;-85
2021/11/10 03:17:30;;;;;;;9.20;1.45;;;;;;;;;;4983137;28;20532;-84
2021/11/10 03:20:00;;;;;;;9.65;1.67;;;;;;;;;;4978679;28;20046;-83
2021/11/10 03:22:27;;;;;;;10.18;1.80;;;;;;;;;;4996101;28;20061;-82
2021/11/10 03:24:54;;;;;;;13.43;2.33;;;;;;;;;;4984778;28;20078;-83
2021/11/10 03:27:24;;;;;;;10.00;1.73;;;;;;;;;;4997653;28;20208;-85
2021/11/10 03:29:53;;;;;;;13.43;1.95;;;;;;;;;;4988219;28;20041;-83
2021/11/10 03:32:25;;;;;;;15.23;2.17;;;;;;;;;;4997336;28;20038;-83
2021/11/10 03:34:53;;;;;;;13.77;2.22;;;;;;;;;;4994007;28;20041;-82
2021/11/10 03:37:22;;;;;;;11.35;2.15;;;;;;;;;;5000423;28;20040;-83
2021/11/10 03:39:48;;;;;;;15.68;2.50;;;;;;;;;;4986094;28;20041;-84
2021/11/10 03:42:17;;;;;;;13.77;2.15;;;;;;;;;;5006030;28;20160;-83
2021/11/10 03:44:44;;;;;;;10.88;1.85;;;;;;;;;;4982542;28;20063;-82
2021/11/10 03:47:10;;;;;;;11.07;2.28;;;;;;;;;;4994248;28;22941;-84
2021/11/10 03:49:39;;;;;;;9.35;1.90;;;;;;;;;;4998391;28;20017;-83
2021/11/10 03:52:11;;;;;;;14.57;2.85;;;;;;;;;;5005544;28;20063;-83
2021/11/10 03:54:37;;;;;;;12.68;2.38;;;;;;;;;;4999932;28;20529;-83
2021/11/10 03:57:05;;;;;;;12.65;2.95;;;;;;;;;;5000301;28;20041;-83
2021/11/10 03:59:32;;;;;;;18.55;2.92;;;;;;;;;;5004273;28;20165;-84
2021/11/10 04:01:59;;;;;;;20.08;3.40;;;;;;;;;;5011853;28;20064;-83
2021/11/10 04:04:25;;;;;;;17.05;3.22;;;;;;;;;;5003156;28;20042;-83
2021/11/10 04:06:51;;;;;;;;;;;;;;;;;;4984536;28;20044;-83
2021/11/10 04:09:21;;;;;;;20.40;3.13;;;;;;;;;;4997326;28;19967;-83
2021/11/10 04:11:48;;;;;;;23.05;3.83;;;;;;;;;;4994090;28;20108;-89
2021/11/10 04:14:26;;;;;;;21.75;4.18;;;;;;;;;;5008137;28;20416;-86
2021/11/10 04:16:55;;;;;;;16.45;3.33;;;;;;;;;;5019568;28;20036;-84
2021/11/10 04:19:21;;;;;;;14.13;3.10;;;;;;;;;;5022691;28;20534;-84
2021/11/10 04:21:50;;;;;;;15.10;2.95;;;;;;;;;;5021707;28;20060;-84
2021/11/10 04:24:18;;;;;;;21.52;3.47;;;;;;;;;;5004903;28;20129;-84
2021/11/10 04:26:45;;;;;;;17.98;3.38;;;;;;;;;;5000637;28;20036;-84
2021/11/10 04:29:12;;;;;;;20.85;3.78;;;;;;;;;;5006947;28;20029;-83
2021/11/10 04:31:39;;;;;;;20.38;4.28;;;;;;;;;;5009757;28;20021;-84
2021/11/10 04:34:07;;;;;;;22.67;3.85;;;;;;;;;;5002112;28;20033;-83
2021/11/10 04:36:37;;;;;;;18.77;4.20;;;;;;;;;;5009757;28;20033;-83
2021/11/10 04:39:05;;;;;;;21.23;3.90;;;;;;;;;;4995604;28;20037;-83
2021/11/10 04:41:31;;;;;;;24.60;4.45;;;;;;;;;;5001685;28;20121;-82
2021/11/10 04:43:57;;;;;;;;;;;;;;;;;;5015313;28;20676;-84
2021/11/10 04:46:34;;;;;;;24.75;4.22;;;;;;;;;;5018126;28;19917;-83
2021/11/10 04:49:04;;;;;;;25.35;4.00;;;;;;;;;;4988408;28;20045;-82
2021/11/10 04:51:32;;;;;;;20.52;3.83;;;;;;;;;;5003947;28;20052;-83
2021/11/10 04:54:09;;;;;;;21.92;4.07;;;;;;;;;;4990999;28;20046;-84
2021/11/10 04:56:39;;;;;;;19.70;3.95;;;;;;;;;;4989047;28;20046;-84
2021/11/10 04:59:08;;;;;;;25.55;4.50;;;;;;;;;;4990024;28;20033;-83
2021/11/10 05:01:37;;;;;;;23.77;4.00;;;;;;;;;;5008762;28;20045;-82
2021/11/10 05:04:07;;;;;;;21.08;3.97;;;;;;;;;;5000210;28;20060;-85
2021/11/10 05:06:36;;;;;;;20.02;4.22;;;;;;;;;;4998318;28;20031;-83
2021/11/10 05:09:03;;;;;;;23.30;4.57;;;;;;;;;;4998403;28;20049;-83
2021/11/10 05:11:31;;;;;;;23.73;4.57;;;;;;;;;;5005597;28;20633;-83
2021/11/10 05:13:58;;;;;;;22.35;4.05;;;;;;;;;;5000120;28;20033;-83
2021/11/10 05:16:27;;;;;;;23.90;4.32;;;;;;;;;;5006854;28;20064;-83
2021/11/10 05:18:55;;;;;;;21.20;3.78;;;;;;;;;;4997968;28;20131;-83
2021/11/10 05:21:32;;;;;;;23.48;4.20;;;;;;;;;;4991807;28;20138;-83
2021/11/10 05:23:59;;;;;;;24.02;4.72;;;;;;;;;;5006655;28;20049;-83
2021/11/10 05:26:25;;;;;;;26.70;4.18;;;;;;;;;;5001269;28;20042;-83
2021/11/10 05:28:51;;;;;;;24.77;4.35;;;;;;;;;;4994795;28;20683;-82
2021/11/10 05:31:17;;;;;;;21.40;3.97;;;;;;;;;;5004291;28;20718;-83
2021/11/10 05:33:46;;;;;;;21.85;4.20;;;;;;;;;;4991310;28;20248;-83
2021/11/10 05:36:13;;;;;;;25.20;4.25;;;;;;;;;;4983631;28;20039;-82
2021/11/10 05:38:42;;;;;;;26.10;4.43;;;;;;;;;;4973233;28;20042;-84
2021/11/10 05:41:09;;;;;;;25.40;5.32;;;;;;;;;;4987208;28;20049;-83
2021/11/10 05:43:38;;;;;;;26.17;4.45;;;;;;;;;;4993354;28;20029;-84
2021/11/10 05:46:07;;;;;;;23.73;4.90;;;;;;;;;;4987109;28;20473;-84
2021/11/10 05:48:36;;;;;;;24.38;4.35;;;;;;;;;;4987086;28;20058;-85
2021/11/10 05:51:03;;;;;;;24.85;4.53;;;;;;;;;;4979656;28;20088;-83
2021/11/10 05:53:32;;;;;;;26.75;5.10;;;;;;;;;;4976490;28;20131;-82
2021/11/10 05:56:01;;;;;;;28.95;5.22;;;;;;;;;;4983191;28;20057;-83
2021/11/10 05:58:31;;;;;;;23.15;4.57;;;;;;;;;;4997149;28;20497;-84
2021/11/10 06:01:01;;;;;;;23.88;4.78;;;;;;;;;;4998694;28;20045;-84
2021/11/10 06:03:31;;;;;;;30.70;5.85;;;;;;;;;;5005128;28;20276;-84
2021/11/10 06:05:58;;;;;;;30.58;5.07;;;;;;;;;;4996676;28;20420;-84
2021/11/10 06:08:29;;;;;;;27.83;5.10;;;;;;;;;;4990472;28;20041;-83
2021/11/10 06:10:56;;;;;;;32.70;5.63;;;;;;;;;;5001736;28;20371;-86
2021/11/10 06:13:26;;;;;;;25.73;5.00;;;;;;;;;;4985227;28;20041;-84
2021/11/10 06:15:53;;;;;;;25.75;5.30;;;;;;;;;;4994962;28;20160;-85
2021/11/10 06:18:23;;;;;;;28.70;5.95;;;;;;;;;;4983379;28;20034;-84
2021/11/10 06:20:52;;;;;;;29.67;5.15;;;;;;;;;;4981195;28;20049;-85
2021/11/10 06:23:20;;;;;;;21.17;4.45;;;;;;;;;;4977298;28;20061;-85
2021/11/10 06:25:46;;;;;;;23.10;4.88;;;;;;;;;;5018528;28;20049;-84
2021/11/10 06:28:15;;;;;;;22.67;5.22;;;;;;;;;;4977752;28;20529;-84
2021/11/10 06:30:44;;;;;;;22.48;4.32;;;;;;;;;;5010471;28;20026;-83
2021/11/10 06:33:11;;;;;;;28.08;5.45;;;;;;;;;;4999236;28;20037;-84
2021/11/10 06:35:39;;;;;;;25.50;5.43;;;;;;;;;;4999012;28;20436;-84
2021/11/10 06:38:07;;;;;;;29.38;5.15;;;;;;;;;;4998969;28;20879;-84
2021/11/10 06:40:33;;;;;;;32.22;6.07;;;;;;;;;;4998487;28;20033;-84
2021/11/10 06:43:00;;;;;;;27.67;4.97;;;;;;;;;;4997261;28;20102;-84
2021/11/10 06:45:28;;;;;;;30.83;5.68;;;;;;;;;;5003393;28;20148;-84
2021/11/10 06:47:56;;;;;;;25.88;6.68;;;;;;;;;;4975901;28;20038;-84
2021/11/10 06:50:22;;;;;;;28.67;5.70;;;;;;;;;;4981627;28;20109;-84
2021/11/10 06:52:52;;;;;;;25.75;5.78;;;;;;;;;;4998395;28;20040;-83
2021/11/10 06:55:18;;;;;;;29.17;5.95;;;;;;;;;;4998294;28;20030;-82
2021/11/10 06:57:47;;;;;;;30.95;5.88;;;;;;;;;;4998352;28;20115;-83
2021/11/10 07:00:15;;;;;;;29.42;5.25;;;;;;;;;;4998109;28;20455;-81
2021/11/10 07:02:44;;;;;;;26.27;6.53;;;;;;;;;;4996351;28;20038;-82
2021/11/10 07:05:12;;;;;;;34.70;5.60;;;;;;;;;;4981635;28;21746;-83
2021/11/10 07:07:40;;;;;;;31.00;5.60;;;;;;;;;;5008436;28;20021;-83
2021/11/10 07:10:07;;;;;;;24.30;5.68;;;;;;;;;;4969235;28;20055;-84
2021/11/10 07:12:33;;;;;;;28.38;5.40;;;;;;;;;;4994624;28;20042;-82
2021/11/10 07:15:03;;;;;;;31.13;7.00;;;;;;;;;;4981586;28;20726;-83
2021/11/10 07:17:31;;;;;;;24.20;5.32;;;;;;;;;;4992446;28;20041;-84
2021/11/10 07:19:57;;;;;;;31.52;5.10;;;;;;;;;;4973350;28;20054;-84
2021/11/10 07:22:25;;;;;;;23.95;5.75;;;;;;;;;;4994357;28;20030;-84
2021/11/10 07:24:54;;;;;;;30.63;6.50;;;;;;;;;;4957789;28;20107;-83
2021/11/10 07:27:22;;;;;;;22.70;5.45;;;;;;;;;;4974273;28;20041;-83
2021/11/10 07:30:00;;;;;;;24.35;5.40;;;;;;;;;;5002788;28;20057;-83
2021/11/10 07:32:30;;;;;;;18.38;4.93;;;;;;;;;;4993698;28;20045;-84
2021/11/10 07:34:58;;;;;;;22.17;4.55;;;;;;;;;;4979316;28;20121;-84
2021/11/10 07:37:28;;;;;;;22.45;4.75;;;;;;;;;;4979716;28;20047;-83
2021/11/10 07:39:56;;;;;;;22.48;6.28;;;;;;;;;;4981956;28;20055;-84
2021/11/10 07:42:23;;;;;;;28.67;5.43;;;;;;;;;;4987034;28;20045;-84
2021/11/10 07:45:06;;;;;;;28.13;4.57;;;;;;;;;;4977182;28;20641;-85
2021/11/10 07:47:39;;;;;;;24.08;4.97;;;;;;;;;;4994962;28;20042;-83
2021/11/10 07:50:06;;;;;;;25.48;5.32;;;;;;;;;;4969371;28;20885;-84
2021/11/10 07:52:35;;;;;;;18.52;4.00;;;;;;;;;;4981411;28;20512;-83
2021/11/10 07:55:01;;;;;;;18.42;4.93;;;;;;;;;;4976055;28;20149;-83
2021/11/10 07:57:30;;;;;;;20.38;6.22;;;;;;;;;;4996608;28;20046;-83
2021/11/10 07:59:57;;;;;;;17.30;4.40;;;;;;;;;;4977441;28;20038;-84
2021/11/10 08:02:23;;;;;;;19.35;4.15;;;;;;;;;;4978334;28;20799;-83
2021/11/10 08:04:52;;;;;;;23.23;4.90;;;;;;;;;;4980590;28;20061;-83
2021/11/10 08:07:21;;;;;;;18.40;3.75;;;;;;;;;;4999942;28;20049;-85
2021/11/10 08:09:49;;;;;;;21.58;4.50;;;;;;;;;;4992958;28;20033;-83
2021/11/10 08:12:18;;;;;;;19.67;4.00;;;;;;;;;;4972606;28;20372;-84
2021/11/10 08:14:45;;;;;;;23.65;4.65;;;;;;;;;;4988525;28;20534;-82
2021/11/10 08:17:12;;;;;;;21.38;4.20;;;;;;;;;;4978154;28;20041;-83
2021/11/10 08:19:41;;;;;;;21.15;3.97;;;;;;;;;;4979025;28;20124;-83
2021/11/10 08:22:08;;;;;;;23.38;4.07;;;;;;;;;;4987726;28;20041;-84
2021/11/10 08:24:39;;;;;;;21.63;4.85;;;;;;;;;;4989311;28;20074;-84
2021/11/10 08:27:11;;;;;;;18.45;4.18;;;;;;;;;;4979507;28;20038;-83
2021/11/10 08:29:43;;;;;;;18.77;4.35;;;;;;;;;;4995220;28;20072;-82
2021/11/10 08:32:14;;;;;;;20.67;4.10;;;;;;;;;;4984134;28;20056;-83
2021/11/10 08:34:41;;;;;;;24.08;4.28;;;;;;;;;;4984215;28;20028;-84
2021/11/10 08:37:09;;;;;;;19.77;4.18;;;;;;;;;;4973296;28;20987;-85
2021/11/10 08:39:37;;;;;;;23.05;4.57;;;;;;;;;;4983831;28;20053;-85
2021/11/10 08:42:08;;;;;;;19.98;4.22;;;;;;;;;;4980698;28;20150;-86
2021/11/10 08:44:44;;;;;;;19.60;3.88;;;;;;;;;;4992486;28;20030;-85
2021/11/10 08:47:14;;;;;;;21.27;3.95;;;;;;;;;;4982382;28;22591;-86
2021/11/10 08:49:40;;;;;;;22.30;4.70;;;;;;;;;;4999221;28;20049;-86
2021/11/10 08:52:10;;;;;;;22.73;5.70;;;;;;;;;;4995691;28;20110;-87
2021/11/10 08:54:38;;;;;;;23.05;5.88;;;;;;;;;;4987515;28;20034;-86
2021/11/10 08:57:06;;;;;;;22.88;5.05;;;;;;;;;;4983468;28;20056;-87
2021/11/10 08:59:33;;;;;;;21.92;5.07;;;;;;;;;;4985460;28;20061;-86
2021/11/10 09:02:02;;;;;;;28.88;5.60;;;;;;;;;;4980189;28;20124;-87
2021/11/10 09:04:29;;;;;;;26.73;6.28;;;;;;;;;;4986765;28;20084;-86
2021/11/10 09:06:57;;;;;;;21.30;5.82;;;;;;;;;;5010165;28;20049;-86
2021/11/10 09:09:26;;;;;;;19.52;4.68;;;;;;;;;;4997499;28;20037;-87
2021/11/10 09:11:53;;;;;;;17.77;4.30;;;;;;;;;;4963827;28;20387;-86
2021/11/10 09:14:22;;;;;;;20.60;4.60;;;;;;;;;;4960741;28;20153;-86
2021/11/10 09:16:49;;;;;;;16.10;4.25;;;;;;;;;;4978541;28;20044;-86
2021/11/10 09:19:16;;;;;;;17.23;3.53;;;;;;;;;;4986192;28;20057;-86
2021/11/10 09:21:46;;;;;;;16.45;3.17;;;;;;;;;;4966606;28;20034;-86
2021/11/10 09:24:15;;;;;;;16.15;3.60;;;;;;;;;;4960124;28;20038;-86
2021/11/10 09:26:42;;;;;;;11.05;2.83;;;;;;;;;;4979226;28;20045;-87
2021/11/10 09:29:13;;;;;;;12.73;2.55;;;;;;;;;;4956951;28;20030;-85
2021/11/10 09:31:41;;;;;;;11.85;2.05;;;;;;;;;;4970924;28;20073;-85
2021/11/10 09:34:12;;;;;;;8.90;1.80;;;;;;;;;;4965326;28;20920;-85
2021/11/10 09:36:51;;;;;;;8.88;2.13;;;;;;;;;;4977076;28;20046;-84
2021/11/10 09:39:20;;;;;;;11.40;2.38;;;;;;;;;;4959353;28;20596;-86
2021/11/10 09:41:55;;;;;;;11.90;3.22;;;;;;;;;;4974977;28;20092;-85
2021/11/10 09:44:25;;;;;;;9.48;1.90;;;;;;;;;;4981988;28;20034;-84
2021/11/10 09:46:53;;;;;;;8.60;1.80;;;;;;;;;;4968766;28;20026;-83
2021/11/10 09:49:20;;;;;;;10.02;1.90;;;;;;;;;;4972392;28;20637;-83
2021/11/10 09:51:47;;;;;;;9.18;1.90;;;;;;;;;;4915748;28;20803;-84
2021/11/10 09:54:14;;;;;;;8.63;1.70;;;;;;;;;;4948379;28;20053;-84
2021/11/10 09:56:42;;;;;;;9.07;1.85;;;;;;;;;;4955112;28;20804;-84
2021/11/10 09:59:13;;;;;;;8.50;2.45;;;;;;;;;;4957976;28;20057;-83
2021/11/10 10:01:42;;;;;;;10.70;3.28;;;;;;;;;;4966223;28;20041;-83
2021/11/10 10:04:10;;;;;;;8.80;2.13;;;;;;;;;;4979715;28;20033;-84
2021/11/10 10:06:37;;;;;;;9.68;1.95;;;;;;;;;;4996075;28;20033;-84
2021/11/10 10:09:05;;;;;;;11.30;2.38;;;;;;;;;;4989799;28;20122;-84
2021/11/10 10:11:34;;;;;;;10.27;2.25;;;;;;;;;;5006599;28;21158;-84
2021/11/10 10:14:01;;;;;;;8.02;1.98;;;;;;;;;;5002451;28;20516;-84
2021/11/10 10:16:31;;;;;;;11.27;2.55;;;;;;;;;;5013133;28;20101;-85
2021/11/10 10:19:07;;;;;;;10.30;2.45;;;;;;;;;;4997218;28;20681;-84
2021/11/10 10:21:34;;;;;;;10.48;2.45;;;;;;;;;;4993702;28;20743;-85
2021/11/10 10:24:06;;;;;;;10.80;2.72;;;;;;;;;;4999356;28;20050;-85
2021/11/10 10:26:35;;;;;;;11.98;2.72;;;;;;;;;;4979261;28;20398;-84
2021/11/10 10:29:09;;;;;;;13.80;2.70;;;;;;;;;;4978892;28;20037;-84
2021/11/10 10:31:37;;;;;;;11.80;2.60;;;;;;;;;;5001809;28;20064;-84
2021/11/10 10:34:09;;;;;;;13.77;3.03;;;;;;;;;;4999935;28;20042;-85
2021/11/10 10:36:39;;;;;;;15.23;2.92;;;;;;;;;;4967430;28;20909;-84
2021/11/10 10:39:09;;;;;;;14.43;2.92;;;;;;;;;;4984277;28;20163;-84
2021/11/10 10:41:39;;;;;;;16.20;3.10;;;;;;;;;;4994940;28;20050;-84
2021/11/10 10:44:17;;;;;;;16.33;2.65;;;;;;;;;;4979269;28;21109;-85
2021/11/10 10:46:46;;;;;;;15.55;3.25;;;;;;;;;;5000596;28;20498;-83
2021/11/10 10:49:21;;;;;;;14.52;3.20;;;;;;;;;;4984963;28;20508;-84
2021/11/10 10:51:54;;;;;;;16.95;3.50;;;;;;;;;;4982395;28;20102;-84
2021/11/10 10:54:28;;;;;;;17.70;3.75;;;;;;;;;;4981531;28;20460;-83
2021/11/10 10:56:59;;;;;;;18.80;4.20;;;;;;;;;;4978864;28;20124;-84
2021/11/10 10:59:28;;;;;;;17.35;3.50;;;;;;;;;;4998238;28;20049;-84
2021/11/10 11:01:57;;;;;;;19.88;3.85;;;;;;;;;;4996866;28;20025;-84
2021/11/10 11:04:33;;;;;;;19.00;4.03;;;;;;;;;;4964165;28;20201;-84
2021/11/10 11:07:10;;;;;;;15.23;3.95;;;;;;;;;;4962611;28;20039;-84
2021/11/10 11:09:54;;;;;;;18.05;3.75;;;;;;;;;;4966394;28;20038;-84
2021/11/10 11:12:29;;;;;;;19.35;4.03;;;;;;;;;;4978297;28;20044;-84
2021/11/10 11:15:25;;;;;;;19.48;3.40;;;;;;;;;;4946913;28;20097;-84
2021/11/10 11:17:53;;;;;;;14.13;3.17;;;;;;;;;;4981018;28;20100;-84
2021/11/10 11:20:28;;;;;;;14.80;3.47;;;;;;;;;;4980649;28;20433;-83
2021/11/10 11:23:03;;;;;;;20.40;4.35;;;;;;;;;;4989580;28;20042;-87
2021/11/10 11:25:31;;;;;;;16.70;4.80;;;;;;;;;;4980536;28;20069;-84
2021/11/10 11:27:57;;;;;;;18.27;3.85;;;;;;;;;;4975997;28;20038;-86
2021/11/10 11:30:26;;;;;;;19.25;4.78;;;;;;;;;;4970551;28;20458;-86
2021/11/10 11:32:58;;;;;;;15.30;3.50;;;;;;;;;;4975069;28;20095;-86
2021/11/10 11:35:42;;;;;;;19.58;4.47;;;;;;;;;;4981543;28;20084;-84
2021/11/10 11:38:10;;;;;;;18.42;4.45;;;;;;;;;;4978999;28;20084;-86
2021/11/10 11:40:44;;;;;;;16.30;4.38;;;;;;;;;;4950946;28;20067;-86
2021/11/10 11:43:14;;;;;;;19.92;4.68;;;;;;;;;;4997553;28;24504;-86
2021/11/10 11:45:46;;;;;;;19.23;4.50;;;;;;;;;;4998091;28;20065;-84
2021/11/10 11:48:15;;;;;;;20.02;4.30;;;;;;;;;;5007896;28;20989;-84
2021/11/10 11:50:42;;;;;;;18.65;4.90;;;;;;;;;;4997573;28;20048;-85
2021/11/10 11:53:11;;;;;;;17.40;4.53;;;;;;;;;;4984348;28;20030;-85
2021/11/10 11:55:57;;;;;;;17.02;3.70;;;;;;;;;;4985666;28;20048;-84
2021/11/10 11:58:39;;;;;;;16.23;3.72;;;;;;;;;;5007694;28;20041;-84
2021/11/10 12:01:11;;;;;;;14.38;3.80;;;;;;;;;;5016550;28;20114;-84
2021/11/10 12:03:46;;;;;;;12.45;3.30;;;;;;;;;;5001967;28;20072;-85
2021/11/10 12:06:16;;;;;;;13.68;3.75;;;;;;;;;;4998511;28;20124;-85
2021/11/10 12:09:05;;;;;;;12.35;3.20;;;;;;;;;;5002399;28;20053;-85
2021/11/10 12:11:40;;;;;;;21.60;3.58;;;;;;;;;;5016537;28;20087;-85
2021/11/10 12:14:20;;;;;;;12.52;3.28;;;;;;;;;;4988861;28;20043;-85
2021/11/10 12:16:55;;;;;;;12.95;3.47;;;;;;;;;;5017039;28;20025;-85
2021/11/10 12:19:28;;;;;;;13.63;3.47;;;;;;;;;;5013051;28;20044;-85
2021/11/10 12:21:56;;;;;;;15.20;3.38;;;;;;;;;;5000904;28;20048;-83
2021/11/10 12:24:44;;;;;;;13.70;3.80;;;;;;;;;;5001995;28;20032;-83
2021/11/10 12:27:18;;;;;;;12.13;3.55;;;;;;;;;;4996783;28;21924;-84
2021/11/10 12:29:52;;;;;;;11.73;3.42;;;;;;;;;;5014249;28;20035;-84
2021/11/10 12:32:25;;;;;;;12.38;2.70;;;;;;;;;;4998325;28;20061;-85
2021/11/10 12:34:55;;;;;;;9.93;2.28;;;;;;;;;;5000315;28;20022;-85
2021/11/10 12:37:43;;;;;;;10.27;2.20;;;;;;;;;;5020546;28;20041;-85
2021/11/10 12:40:22;;;;;;;9.65;2.00;;;;;;;;;;4981859;28;20045;-84
2021/11/10 12:43:12;;;;;;;9.73;1.83;;;;;;;;;;5010719;28;20707;-84
2021/11/10 12:45:40;;;;;;;8.98;1.92;;;;;;;;;;5000276;28;20037;-84
2021/11/10 12:48:13;;;;;;;12.30;2.38;;;;;;;;;;5011126;28;20033;-84
2021/11/10 12:50:52;;;;;;;13.63;2.50;;;;;;;;;;5000064;28;20919;-86
2021/11/10 12:53:37;;;;;;;9.70;2.28;;;;;;;;;;4993106;28;20856;-85
2021/11/10 12:56:08;;;;;;;14.45;2.55;;;;;;;;;;4993467;28;20044;-85
2021/11/10 12:58:42;;;;;;;12.23;2.47;;;;;;;;;;4999840;28;20037;-85
2021/11/10 13:01:14;;;;;;;11.77;2.30;;;;;;;;;;5000251;28;20075;-86
2021/11/10 13:03:51;;;;;;;9.95;2.65;;;;;;;;;;5001611;28;20041;-85
2021/11/10 13:06:28;;;;;;;11.60;2.65;;;;;;;;;;5003554;28;20035;-84
2021/11/10 13:09:01;;;;;;;9.05;2.38;;;;;;;;;;4996238;28;20070;-85
2021/11/10 13:11:33;;;;;;;7.03;2.28;;;;;;;;;;5005556;28;20037;-85
2021/11/10 13:14:18;;;;;;;10.13;2.00;;;;;;;;;;5015411;28;20125;-84
2021/11/10 13:17:03;;;;;;;8.85;2.08;;;;;;;;;;4997700;28;20510;-84
2021/11/10 13:19:46;;;;;;;10.05;2.25;;;;;;;;;;5000689;28;20041;-85
2021/11/10 13:22:16;;;;;;;11.57;2.65;;;;;;;;;;4985203;28;20038;-84
2021/11/10 13:24:48;;;;;;;10.85;2.42;;;;;;;;;;4985130;28;20066;-84
2021/11/10 13:27:27;;;;;;;11.32;2.75;;;;;;;;;;4993903;28;20042;-85
2021/11/10 13:29:56;;;;;;;11.60;2.55;;;;;;;;;;4980771;28;20041;-84
2021/11/10 13:32:23;;;;;;;10.68;2.78;;;;;;;;;;4972931;28;20042;-84
2021/11/10 13:34:56;;;;;;;9.77;2.13;;;;;;;;;;4985850;28;20037;-84
2021/11/10 13:37:26;;;;;;;11.38;2.78;;;;;;;;;;4989134;28;20816;-84
2021/11/10 13:40:00;;;;;;;13.23;2.45;;;;;;;;;;4982905;28;20077;-83
2021/11/10 13:42:28;;;;;;;10.40;2.20;;;;;;;;;;4986370;28;20032;-83
2021/11/10 13:45:09;;;;;;;15.13;2.50;;;;;;;;;;4979511;28;20044;-83
2021/11/10 13:47:58;;;;;;;10.43;2.25;;;;;;;;;;4988693;28;20069;-83
2021/11/10 13:50:47;;;;;;;15.45;2.42;;;;;;;;;;4983720;28;20045;-83
2021/11/10 13:53:24;;;;;;;13.38;1.92;;;;;;;;;;4980307;28;20034;-83
2021/11/10 13:56:01;;;;;;;9.50;2.15;;;;;;;;;;4985191;28;20588;-83
2021/11/10 13:58:31;;;;;;;9.30;2.42;;;;;;;;;;4984722;28;20377;-83
2021/11/10 14:00:58;;;;;;;11.55;2.33;;;;;;;;;;4980332;28;21495;-85
2021/11/10 14:03:27;;;;;;;8.23;1.83;;;;;;;;;;5000784;28;20041;-84
2021/11/10 14:05:55;;;;;;;9.05;2.08;;;;;;;;;;4981566;28;20084;-84
2021/11/10 14:08:26;;;;;;;8.02;2.08;;;;;;;;;;4986358;28;20187;-83
2021/11/10 14:10:59;;;;;;;11.70;2.10;;;;;;;;;;4980763;28;20057;-83
2021/11/10 14:13:37;;;;;;;9.80;2.42;;;;;;;;;;5000705;28;20033;-85
2021/11/10 14:16:05;;;;;;;8.15;1.70;;;;;;;;;;4994821;28;20038;-83
2021/11/10 14:18:34;;;;;;;8.10;2.25;;;;;;;;;;4989700;28;20057;-83
2021/11/10 14:21:03;;;;;;;10.25;2.20;;;;;;;;;;4993806;28;20045;-83
2021/11/10 14:23:36;;;;;;;13.07;2.72;;;;;;;;;;4999355;28;20032;-84
2021/11/10 14:26:04;;;;;;;10.80;2.70;;;;;;;;;;4997570;28;20041;-85
2021/11/10 14:28:35;;;;;;;16.35;2.92;;;;;;;;;;4982619;28;20109;-84
2021/11/10 14:31:08;;;;;;;10.38;2.70;;;;;;;;;;4983984;28;20045;-84
2021/11/10 14:33:38;;;;;;;11.38;3.15;;;;;;;;;;4985348;28;20057;-84
2021/11/10 14:36:09;;;;;;;11.45;3.40;;;;;;;;;;4997504;28;20169;-84
2021/11/10 14:38:40;;;;;;;11.13;3.00;;;;;;;;;;4986711;28;20042;-84
2021/11/10 14:41:13;;;;;;;8.82;2.85;;;;;;;;;;4997070;28;20049;-83
2021/11/10 14:43:46;;;;;;;7.70;1.95;;;;;;;;;;4987469;28;20029;-83
2021/11/10 14:46:32;;;;;;;9.38;2.28;;;;;;;;;;4982319;28;20042;-84
2021/11/10 14:49:07;;;;;;;12.05;2.58;;;;;;;;;;4980252;28;20556;-85
2021/11/10 14:51:40;;;;;;;10.35;2.45;;;;;;;;;;4992644;28;20128;-84
2021/11/10 14:54:13;;;;;;;13.25;2.80;;;;;;;;;;4986457;28;20038;-83